Time;durP1;ratioP1;P1;durP2;ratioP2;P2;SDS_P1;SDS_P2;PMS_P1;PMS_P2;Temp;Humidity;BMP_temperature;BMP_pressure;BME280_temperature;BME280_humidity;BME280_pressure;Samples;Min_cycle;Max_cycle;Signal;HPM_P1;HPM_P2
2022/02/27 00:02:19;;;;;;;11.57;4.07;;;3.60;1.00;;;;;;5034192;28;20500;-72
2022/02/27 00:04:45;;;;;;;9.65;3.75;;;3.60;1.00;;;;;;5033720;28;20037;-72
2022/02/27 00:07:11;;;;;;;12.15;3.97;;;3.60;1.00;;;;;;5033798;28;20049;-72
2022/02/27 00:09:37;;;;;;;10.10;4.28;;;3.70;1.00;;;;;;5034220;28;20095;-72
2022/02/27 00:12:03;;;;;;;8.45;4.07;;;3.80;1.00;;;;;;5033753;28;20041;-72
2022/02/27 00:14:29;;;;;;;8.05;3.55;;;3.80;1.00;;;;;;5034106;28;20108;-72
2022/02/27 00:16:55;;;;;;;11.85;4.90;;;3.90;1.00;;;;;;5034456;28;20613;-72
2022/02/27 00:19:23;;;;;;;12.50;3.83;;;4.00;1.00;;;;;;5034155;28;20052;-72
2022/02/27 00:21:49;;;;;;;13.43;3.88;;;4.00;1.00;;;;;;5034486;28;20045;-72
2022/02/27 00:24:15;;;;;;;15.13;3.72;;;4.20;1.00;;;;;;5034148;28;20034;-72
2022/02/27 00:26:42;;;;;;;14.90;3.50;;;4.30;1.00;;;;;;5033648;28;20129;-72
2022/02/27 00:29:07;;;;;;;12.20;4.00;;;4.30;1.00;;;;;;5033747;28;20053;-72
2022/02/27 00:31:33;;;;;;;13.05;3.42;;;4.20;1.00;;;;;;5033933;28;20392;-72
2022/02/27 00:33:59;;;;;;;8.82;2.83;;;4.10;1.00;;;;;;5034620;28;20484;-72
2022/02/27 00:36:25;;;;;;;12.82;3.35;;;4.40;1.00;;;;;;5037317;28;20049;-72
2022/02/27 00:38:51;;;;;;;10.20;2.42;;;4.40;1.00;;;;;;5037062;28;20041;-72
2022/02/27 00:41:18;;;;;;;8.13;2.65;;;4.70;1.00;;;;;;5037410;28;20483;-72
2022/02/27 00:43:43;;;;;;;7.68;2.90;;;4.60;1.00;;;;;;5037004;28;20044;-72
2022/02/27 00:46:09;;;;;;;10.15;2.63;;;4.80;1.00;;;;;;5037022;28;20044;-72
2022/02/27 00:48:36;;;;;;;8.73;3.22;;;4.80;1.00;;;;;;5037164;28;20492;-72
2022/02/27 00:51:03;;;;;;;10.82;2.60;;;4.70;1.00;;;;;;5036995;28;20041;-72
2022/02/27 00:53:29;;;;;;;5.78;2.03;;;4.70;1.00;;;;;;5037129;28;20048;-72
2022/02/27 00:55:54;;;;;;;8.95;2.45;;;4.90;1.00;;;;;;5019467;28;20030;-72
2022/02/27 00:58:20;;;;;;;9.27;2.90;;;4.90;1.00;;;;;;5037142;28;20038;-72
2022/02/27 01:00:46;;;;;;;11.55;2.65;;;5.00;1.00;;;;;;5036954;28;20084;-72
2022/02/27 01:03:12;;;;;;;9.73;1.90;;;5.00;1.00;;;;;;5037829;28;20095;-72
2022/02/27 01:05:38;;;;;;;10.75;2.00;;;5.00;1.00;;;;;;5037027;28;20124;-72
2022/02/27 01:08:04;;;;;;;10.98;2.08;;;5.20;1.00;;;;;;5037151;28;20034;-72
2022/02/27 01:10:30;;;;;;;8.05;2.13;;;5.20;1.00;;;;;;5037254;28;20128;-72
2022/02/27 01:12:56;;;;;;;12.30;2.47;;;5.20;1.00;;;;;;5036789;28;20117;-72
2022/02/27 01:15:21;;;;;;;7.95;2.08;;;5.00;1.00;;;;;;5036559;28;20117;-72
2022/02/27 01:17:48;;;;;;;13.32;2.63;;;5.00;1.00;;;;;;5036881;28;20051;-72
2022/02/27 01:20:14;;;;;;;12.48;2.20;;;4.90;1.00;;;;;;5036814;28;20042;-72
2022/02/27 01:22:40;;;;;;;13.52;2.42;;;4.80;1.00;;;;;;5036784;28;20042;-72
2022/02/27 01:25:08;;;;;;;10.40;2.83;;;4.80;1.00;;;;;;5036843;28;20044;-72
2022/02/27 01:27:34;;;;;;;7.68;2.45;;;4.90;1.00;;;;;;5036457;28;20037;-72
2022/02/27 01:30:00;;;;;;;11.60;2.45;;;4.70;1.00;;;;;;5036663;28;20484;-72
2022/02/27 01:32:25;;;;;;;11.57;2.28;;;4.80;1.00;;;;;;5036694;28;20044;-72
2022/02/27 01:34:52;;;;;;;11.65;2.63;;;4.70;1.00;;;;;;5036649;28;20060;-72
2022/02/27 01:37:18;;;;;;;12.52;2.72;;;4.80;1.00;;;;;;5036230;28;20049;-71
2022/02/27 01:39:44;;;;;;;11.55;2.30;;;4.80;1.00;;;;;;5036863;28;20043;-72
2022/02/27 01:42:15;;;;;;;12.57;2.03;;;4.80;1.00;;;;;;5036492;28;20122;-72
2022/02/27 01:44:42;;;;;;;10.07;2.00;;;4.80;1.00;;;;;;5036413;28;20065;-72
2022/02/27 01:47:11;;;;;;;9.32;1.73;;;4.80;1.00;;;;;;5036027;28;20124;-72
2022/02/27 01:49:44;;;;;;;8.95;2.00;;;4.90;1.00;;;;;;5035709;28;20072;-72
2022/02/27 01:52:10;;;;;;;8.85;2.28;;;4.90;1.00;;;;;;5036674;28;20065;-72
2022/02/27 01:54:36;;;;;;;13.13;2.10;;;4.80;1.00;;;;;;5035912;28;20033;-72
2022/02/27 01:57:02;;;;;;;9.10;2.30;;;4.70;1.00;;;;;;5035907;28;20136;-72
2022/02/27 01:59:28;;;;;;;12.38;2.05;;;4.80;1.00;;;;;;5036291;28;20116;-72
2022/02/27 02:01:54;;;;;;;8.63;2.03;;;4.80;1.00;;;;;;5036300;28;20134;-72
2022/02/27 02:04:20;;;;;;;11.07;2.45;;;4.70;1.00;;;;;;5035770;28;20175;-72
2022/02/27 02:06:46;;;;;;;10.70;2.03;;;4.60;1.00;;;;;;5035760;28;20091;-72
2022/02/27 02:09:12;;;;;;;11.82;2.33;;;4.50;1.00;;;;;;5035397;28;20022;-72
2022/02/27 02:11:38;;;;;;;9.23;1.90;;;4.60;1.00;;;;;;5035415;28;20065;-72
2022/02/27 02:14:05;;;;;;;9.18;2.00;;;4.50;1.00;;;;;;5035317;28;20038;-72
2022/02/27 02:16:52;;;;;;;10.52;2.22;;;4.60;1.00;;;;;;5035351;28;20538;-72
2022/02/27 02:19:20;;;;;;;11.15;2.10;;;4.60;1.00;;;;;;5035837;28;20108;-72
2022/02/27 02:21:49;;;;;;;11.05;2.00;;;4.60;1.00;;;;;;5035394;28;20120;-72
2022/02/27 02:24:16;;;;;;;7.88;1.80;;;4.50;1.00;;;;;;5035387;28;20037;-72
2022/02/27 02:26:43;;;;;;;10.40;2.25;;;4.50;1.00;;;;;;5035369;28;20045;-72
2022/02/27 02:29:12;;;;;;;6.05;1.85;;;4.30;1.00;;;;;;5035480;28;20119;-72
2022/02/27 02:31:38;;;;;;;7.45;1.90;;;4.30;1.00;;;;;;5035117;28;20046;-72
2022/02/27 02:34:15;;;;;;;6.57;1.95;;;4.30;1.00;;;;;;5034904;28;20549;-72
2022/02/27 02:36:42;;;;;;;9.88;2.10;;;4.30;1.00;;;;;;5035464;28;20037;-72
2022/02/27 02:39:10;;;;;;;8.30;2.20;;;4.20;1.00;;;;;;5034906;28;20072;-72
2022/02/27 02:41:37;;;;;;;11.45;2.28;;;4.10;1.00;;;;;;5034797;28;20501;-72
2022/02/27 02:44:04;;;;;;;10.40;2.72;;;4.10;1.00;;;;;;5034922;28;20098;-72
2022/02/27 02:46:30;;;;;;;10.07;2.30;;;4.00;1.00;;;;;;5035002;28;20041;-72
2022/02/27 02:48:56;;;;;;;9.63;2.25;;;4.00;1.00;;;;;;5034991;28;20037;-72
2022/02/27 02:51:23;;;;;;;12.57;2.35;;;3.90;1.00;;;;;;5035068;28;20392;-72
2022/02/27 02:53:49;;;;;;;8.18;2.35;;;3.90;1.00;;;;;;5034885;28;20106;-72
2022/02/27 02:56:15;;;;;;;8.65;2.50;;;3.70;1.00;;;;;;5034761;28;20488;-72
2022/02/27 02:58:42;;;;;;;9.90;2.20;;;3.60;1.00;;;;;;5034323;28;20041;-72
2022/02/27 03:01:14;;;;;;;8.70;2.38;;;3.60;1.00;;;;;;5034746;28;20052;-72
2022/02/27 03:03:41;;;;;;;16.80;2.55;;;3.70;1.00;;;;;;5035061;28;20038;-72
2022/02/27 03:06:10;;;;;;;12.77;2.50;;;3.70;1.00;;;;;;5017343;28;20377;-72
2022/02/27 03:08:37;;;;;;;11.63;2.88;;;3.80;1.00;;;;;;5034632;28;20120;-72
2022/02/27 03:11:03;;;;;;;13.52;2.40;;;3.70;1.00;;;;;;5035091;28;20095;-72
2022/02/27 03:13:29;;;;;;;10.23;2.45;;;3.80;1.00;;;;;;5035096;28;20095;-72
2022/02/27 03:15:55;;;;;;;11.07;2.63;;;3.70;1.00;;;;;;5034362;28;20132;-72
2022/02/27 03:18:21;;;;;;;12.07;2.20;;;3.70;1.00;;;;;;5034596;28;20037;-72
2022/02/27 03:20:46;;;;;;;13.20;3.15;;;3.70;1.00;;;;;;5034402;28;20045;-72
2022/02/27 03:23:12;;;;;;;12.40;2.55;;;3.60;1.00;;;;;;5034870;28;20061;-72
2022/02/27 03:25:38;;;;;;;6.82;2.60;;;3.60;1.00;;;;;;5034582;28;20124;-72
2022/02/27 03:28:04;;;;;;;8.18;1.92;;;3.70;1.00;;;;;;5035045;28;20034;-72
2022/02/27 03:30:30;;;;;;;10.77;2.50;;;3.70;1.00;;;;;;5034761;28;20171;-72
2022/02/27 03:32:57;;;;;;;6.63;2.47;;;3.50;1.00;;;;;;5034993;28;20073;-72
2022/02/27 03:35:23;;;;;;;10.00;2.50;;;3.40;1.00;;;;;;5034670;28;20502;-72
2022/02/27 03:37:50;;;;;;;10.65;3.00;;;3.30;1.00;;;;;;5034608;28;20140;-72
2022/02/27 03:40:20;;;;;;;11.52;3.00;;;3.20;1.00;;;;;;5034357;28;20041;-72
2022/02/27 03:42:46;;;;;;;14.15;3.50;;;3.10;1.00;;;;;;5034883;28;20039;-72
2022/02/27 03:45:13;;;;;;;10.82;2.38;;;3.00;1.00;;;;;;5034448;28;20526;-72
2022/02/27 03:47:40;;;;;;;10.02;2.92;;;2.90;1.00;;;;;;5016832;28;20383;-72
2022/02/27 03:50:07;;;;;;;12.13;2.22;;;2.70;1.00;;;;;;5033902;28;20492;-72
2022/02/27 03:52:35;;;;;;;11.80;2.40;;;2.50;1.00;;;;;;5034502;28;20064;-72
2022/02/27 03:55:02;;;;;;;6.72;2.55;;;2.30;1.00;;;;;;5034419;28;20065;-72
2022/02/27 03:57:28;;;;;;;14.02;3.25;;;2.30;1.00;;;;;;5034476;28;20360;-72
2022/02/27 03:59:54;;;;;;;10.55;3.00;;;2.30;1.00;;;;;;5034161;28;20057;-72
2022/02/27 04:02:19;;;;;;;10.35;2.88;;;2.20;1.00;;;;;;5034336;28;20523;-72
2022/02/27 04:04:45;;;;;;;8.85;2.55;;;2.10;2.90;;;;;;5034216;28;20041;-72
2022/02/27 04:07:11;;;;;;;10.85;2.75;;;2.00;4.30;;;;;;5034405;28;20095;-72
2022/02/27 04:09:37;;;;;;;10.65;2.67;;;1.80;4.70;;;;;;5035920;28;20033;-72
2022/02/27 04:12:03;;;;;;;8.95;3.00;;;1.80;6.90;;;;;;5037936;28;20033;-72
2022/02/27 04:14:29;;;;;;;9.85;2.55;;;1.70;18.30;;;;;;5037764;28;20048;-72
2022/02/27 04:16:55;;;;;;;8.85;2.38;;;1.70;22.10;;;;;;5037491;28;20041;-72
2022/02/27 04:19:21;;;;;;;9.38;3.25;;;1.70;24.30;;;;;;5037321;28;20512;-72
2022/02/27 04:21:47;;;;;;;11.82;4.05;;;1.60;22.70;;;;;;5037463;28;20472;-72
2022/02/27 04:24:13;;;;;;;10.20;2.97;;;1.50;27.10;;;;;;5037367;28;20057;-72
2022/02/27 04:26:39;;;;;;;19.33;3.30;;;1.50;28.80;;;;;;5037691;28;20049;-72
2022/02/27 04:29:05;;;;;;;13.82;2.65;;;1.50;31.00;;;;;;5037142;28;20038;-72
2022/02/27 04:31:31;;;;;;;8.82;2.70;;;1.40;49.30;;;;;;5037325;28;20080;-72
2022/02/27 04:33:57;;;;;;;8.40;3.00;;;1.40;45.90;;;;;;5037247;28;20041;-72
2022/02/27 04:36:24;;;;;;;10.70;2.88;;;1.40;37.90;;;;;;5037461;28;20440;-72
2022/02/27 04:38:52;;;;;;;7.30;2.75;;;1.30;38.80;;;;;;5037068;28;20163;-72
2022/02/27 04:41:18;;;;;;;11.07;2.60;;;1.30;46.20;;;;;;5037226;28;20056;-72
2022/02/27 04:43:46;;;;;;;8.88;2.25;;;1.30;45.30;;;;;;5037051;28;20037;-72
2022/02/27 04:46:12;;;;;;;9.45;2.55;;;1.20;44.50;;;;;;5036781;28;20484;-72
2022/02/27 04:48:39;;;;;;;7.88;2.45;;;1.10;38.30;;;;;;5036961;28;20484;-72
2022/02/27 04:51:04;;;;;;;9.35;2.28;;;1.10;51.10;;;;;;5036618;28;20049;-72
2022/02/27 04:53:31;;;;;;;10.80;2.83;;;1.10;45.50;;;;;;5037320;28;20128;-72
2022/02/27 04:55:57;;;;;;;6.43;2.33;;;1.00;47.50;;;;;;5036809;28;20072;-72
2022/02/27 04:58:22;;;;;;;10.82;2.40;;;1.00;50.20;;;;;;5037077;28;20088;-72
2022/02/27 05:00:48;;;;;;;10.10;2.13;;;1.00;50.90;;;;;;5036749;28;20057;-72
2022/02/27 05:03:14;;;;;;;10.48;2.17;;;0.90;55.90;;;;;;5036971;28;20044;-72
2022/02/27 05:05:40;;;;;;;9.40;2.88;;;0.90;52.20;;;;;;5037422;28;20037;-72
2022/02/27 05:08:06;;;;;;;6.18;2.25;;;0.90;64.30;;;;;;5037188;28;20045;-72
2022/02/27 05:10:32;;;;;;;7.00;2.25;;;1.00;64.60;;;;;;5033939;28;20412;-72
2022/02/27 05:12:58;;;;;;;7.10;2.30;;;1.00;61.80;;;;;;5034374;28;20037;-72
2022/02/27 05:15:24;;;;;;;8.18;2.13;;;0.90;61.40;;;;;;5036689;28;20045;-72
2022/02/27 05:17:50;;;;;;;10.20;2.50;;;0.90;60.90;;;;;;5036606;28;20392;-72
2022/02/27 05:20:16;;;;;;;6.78;2.00;;;0.90;62.30;;;;;;5036761;28;20507;-72
2022/02/27 05:22:45;;;;;;;14.68;2.08;;;0.80;69.20;;;;;;5037123;28;20049;-72
2022/02/27 05:25:11;;;;;;;13.40;2.50;;;0.80;67.20;;;;;;5036468;28;20038;-72
2022/02/27 05:27:37;;;;;;;11.27;2.25;;;0.70;78.80;;;;;;5036826;28;20041;-72
2022/02/27 05:30:05;;;;;;;11.02;2.45;;;0.80;72.70;;;;;;5036500;28;20088;-72
2022/02/27 05:32:31;;;;;;;11.63;2.33;;;0.70;64.60;;;;;;5037248;28;20063;-72
2022/02/27 05:34:57;;;;;;;8.95;2.20;;;0.70;60.20;;;;;;5036812;28;20037;-72
2022/02/27 05:37:23;;;;;;;17.15;2.80;;;0.70;70.00;;;;;;5036535;28;20103;-72
2022/02/27 05:39:49;;;;;;;11.60;2.33;;;0.70;71.20;;;;;;5036551;28;20496;-72
2022/02/27 05:42:15;;;;;;;11.57;2.55;;;0.60;64.70;;;;;;5036246;28;20046;-72
2022/02/27 05:44:40;;;;;;;12.82;3.00;;;0.60;82.10;;;;;;5036079;28;20045;-72
2022/02/27 05:47:06;;;;;;;7.13;2.13;;;0.60;83.30;;;;;;5036134;28;20392;-72
2022/02/27 05:49:32;;;;;;;6.32;2.10;;;0.70;88.80;;;;;;5036261;28;20065;-72
2022/02/27 05:51:58;;;;;;;9.82;2.22;;;0.60;87.80;;;;;;5036342;28;20116;-72
2022/02/27 05:54:24;;;;;;;8.20;2.55;;;0.60;79.60;;;;;;5036116;28;20068;-72
2022/02/27 05:56:50;;;;;;;11.98;2.10;;;0.70;92.00;;;;;;5036159;28;20048;-72
2022/02/27 05:59:16;;;;;;;12.18;2.38;;;0.70;85.80;;;;;;5036634;28;20025;-72
2022/02/27 06:01:42;;;;;;;10.88;1.70;;;0.60;77.30;;;;;;5036773;28;20448;-72
2022/02/27 06:04:07;;;;;;;10.60;1.92;;;0.50;70.70;;;;;;5035816;28;20045;-72
2022/02/27 06:06:33;;;;;;;15.77;2.58;;;0.50;82.50;;;;;;5036090;28;20045;-72
2022/02/27 06:08:59;;;;;;;11.50;2.15;;;0.50;86.00;;;;;;5036607;28;20065;-72
2022/02/27 06:11:25;;;;;;;8.23;2.15;;;0.50;85.20;;;;;;5035762;28;20045;-72
2022/02/27 06:13:51;;;;;;;6.53;2.42;;;0.40;79.90;;;;;;5035928;28;20132;-72
2022/02/27 06:16:17;;;;;;;8.52;2.75;;;0.40;79.30;;;;;;5035352;28;20053;-72
2022/02/27 06:18:42;;;;;;;12.25;4.07;;;0.50;80.60;;;;;;5035669;28;20396;-72
2022/02/27 06:21:08;;;;;;;18.75;5.60;;;0.40;76.60;;;;;;5035838;28;20033;-72
2022/02/27 06:23:34;;;;;;;16.42;3.75;;;0.40;89.40;;;;;;5036083;28;20087;-72
2022/02/27 06:26:00;;;;;;;13.30;3.10;;;0.50;87.40;;;;;;5035766;28;20037;-72
2022/02/27 06:28:26;;;;;;;10.68;3.00;;;0.50;85.70;;;;;;5035253;28;20439;-72
2022/02/27 06:30:52;;;;;;;6.18;2.25;;;0.40;77.40;;;;;;5035540;28;20038;-72
2022/02/27 06:33:17;;;;;;;9.05;2.50;;;0.40;67.30;;;;;;5035312;28;20464;-72
2022/02/27 06:35:43;;;;;;;7.75;2.38;;;0.30;70.20;;;;;;5035507;28;20064;-72
2022/02/27 06:38:09;;;;;;;11.43;2.53;;;0.40;69.50;;;;;;5035434;28;20080;-72
2022/02/27 06:40:35;;;;;;;10.18;2.92;;;0.40;61.20;;;;;;5035748;28;20033;-72
2022/02/27 06:43:05;;;;;;;15.40;2.75;;;0.40;64.00;;;;;;5035115;28;20041;-72
2022/02/27 06:45:31;;;;;;;12.60;2.90;;;0.30;53.80;;;;;;5034839;28;20033;-72
2022/02/27 06:47:57;;;;;;;10.50;2.30;;;0.30;57.60;;;;;;5035350;28;20132;-72
2022/02/27 06:50:24;;;;;;;10.82;2.30;;;0.40;63.60;;;;;;5035448;28;20037;-72
2022/02/27 06:52:50;;;;;;;11.52;2.63;;;0.30;48.40;;;;;;5035238;28;20071;-72
2022/02/27 06:55:16;;;;;;;11.77;2.05;;;0.40;54.00;;;;;;5035131;28;20043;-72
2022/02/27 06:57:44;;;;;;;9.05;2.38;;;0.60;60.00;;;;;;5035395;28;20050;-72
2022/02/27 07:00:11;;;;;;;10.30;2.50;;;0.50;37.80;;;;;;5034707;28;20053;-72
2022/02/27 07:02:38;;;;;;;6.72;2.35;;;0.50;39.30;;;;;;5034780;28;20042;-72
2022/02/27 07:05:05;;;;;;;6.00;2.38;;;0.50;45.60;;;;;;5034442;28;20041;-72
2022/02/27 07:07:30;;;;;;;8.48;2.20;;;0.60;38.40;;;;;;5034445;28;20041;-72
2022/02/27 07:10:00;;;;;;;11.77;2.42;;;0.60;34.00;;;;;;5035173;28;20033;-72
2022/02/27 07:12:30;;;;;;;10.13;3.70;;;0.70;42.50;;;;;;5034536;28;20033;-72
2022/02/27 07:14:57;;;;;;;10.00;3.88;;;0.80;28.80;;;;;;5034300;28;20483;-72
2022/02/27 07:17:24;;;;;;;13.90;5.43;;;0.80;24.10;;;;;;5034248;28;20041;-72
2022/02/27 07:19:51;;;;;;;10.65;4.07;;;1.00;22.30;;;;;;5034521;28;20609;-72
2022/02/27 07:22:17;;;;;;;10.32;3.70;;;1.00;24.30;;;;;;5034193;28;20396;-72
2022/02/27 07:24:43;;;;;;;10.57;3.38;;;1.10;24.70;;;;;;5034164;28;20488;-72
2022/02/27 07:27:09;;;;;;;10.45;3.45;;;1.10;24.40;;;;;;5034490;28;20201;-72
2022/02/27 07:29:35;;;;;;;14.98;4.25;;;1.20;23.40;;;;;;5034243;28;20037;-72
2022/02/27 07:32:02;;;;;;;16.58;4.43;;;1.20;22.40;;;;;;5034193;28;20041;-72
2022/02/27 07:34:27;;;;;;;12.50;5.18;;;1.30;24.40;;;;;;5034424;28;20485;-72
2022/02/27 07:36:55;;;;;;;12.60;4.70;;;1.30;13.30;;;;;;5034509;28;20045;-72
2022/02/27 07:39:22;;;;;;;12.68;4.75;;;1.20;15.00;;;;;;5032030;28;20509;-72
2022/02/27 07:41:49;;;;;;;14.80;5.30;;;1.20;15.60;;;;;;5025840;28;20088;-72
2022/02/27 07:44:14;;;;;;;16.15;5.72;;;1.30;16.80;;;;;;5031260;28;20176;-72
2022/02/27 07:46:41;;;;;;;12.60;5.38;;;1.50;22.60;;;;;;5036844;28;20045;-72
2022/02/27 07:49:07;;;;;;;15.65;4.30;;;1.60;14.40;;;;;;5038137;28;20037;-72
2022/02/27 07:51:34;;;;;;;8.75;4.55;;;1.70;9.00;;;;;;5026137;28;20129;-72
2022/02/27 07:54:00;;;;;;;10.95;4.30;;;1.70;6.30;;;;;;5037279;28;20065;-72
2022/02/27 07:56:26;;;;;;;14.02;4.15;;;1.80;6.70;;;;;;5037682;28;20103;-72
2022/02/27 07:58:52;;;;;;;13.30;3.78;;;1.80;4.50;;;;;;5037878;28;20042;-72
2022/02/27 08:01:19;;;;;;;7.32;3.25;;;1.80;4.70;;;;;;5038475;28;20053;-72
2022/02/27 08:03:44;;;;;;;10.75;3.10;;;1.90;3.50;;;;;;5021052;28;20029;-72
2022/02/27 08:06:10;;;;;;;9.07;2.40;;;1.90;1.10;;;;;;5038038;28;20044;-72
2022/02/27 08:08:36;;;;;;;9.50;2.58;;;2.10;1.50;;;;;;5038160;28;20037;-73
2022/02/27 08:11:02;;;;;;;10.07;2.60;;;2.20;1.20;;;;;;5037487;28;20052;-73
2022/02/27 08:13:28;;;;;;;7.32;1.48;;;2.20;1.00;;;;;;5038107;28;20030;-73
2022/02/27 08:15:58;;;;;;;9.95;2.00;;;2.30;1.00;;;;;;5037547;28;20492;-72
2022/02/27 08:18:29;;;;;;;12.65;1.63;;;2.40;1.00;;;;;;5037958;28;20029;-73
2022/02/27 08:20:56;;;;;;;10.98;2.45;;;2.50;1.00;;;;;;5038150;28;20045;-72
2022/02/27 08:23:23;;;;;;;6.45;1.30;;;2.60;1.00;;;;;;5037683;28;20033;-72
2022/02/27 08:25:52;;;;;;;8.32;1.75;;;2.70;1.00;;;;;;5037875;28;20041;-72
2022/02/27 08:28:18;;;;;;;7.28;1.48;;;2.70;1.00;;;;;;5037552;28;20083;-72
2022/02/27 08:30:45;;;;;;;11.05;2.30;;;3.00;1.00;;;;;;5036428;28;20431;-72
2022/02/27 08:33:11;;;;;;;11.57;1.55;;;3.10;1.00;;;;;;5037824;28;20075;-72
2022/02/27 08:35:37;;;;;;;6.93;1.75;;;3.20;1.00;;;;;;5037844;28;20045;-72
2022/02/27 08:38:03;;;;;;;7.30;1.52;;;3.30;1.00;;;;;;5037316;28;20454;-72
2022/02/27 08:40:28;;;;;;;5.60;1.30;;;3.40;1.00;;;;;;5035809;28;20125;-72
2022/02/27 08:42:57;;;;;;;11.95;1.80;;;3.60;1.00;;;;;;5036815;28;20083;-72
2022/02/27 08:45:23;;;;;;;11.73;2.00;;;3.80;1.00;;;;;;5037628;28;20068;-72
2022/02/27 08:47:50;;;;;;;11.65;1.95;;;4.00;1.00;;;;;;5037586;28;20053;-72
2022/02/27 08:50:16;;;;;;;10.23;1.92;;;4.20;1.00;;;;;;5026421;28;20124;-72
2022/02/27 08:52:42;;;;;;;11.70;2.13;;;4.40;1.00;;;;;;5038021;28;20072;-72
2022/02/27 08:55:10;;;;;;;10.95;1.85;;;4.50;1.00;;;;;;5036554;28;20095;-72
2022/02/27 08:57:36;;;;;;;11.57;2.03;;;4.70;1.00;;;;;;5036935;28;20496;-74
2022/02/27 09:00:09;;;;;;;7.38;1.73;;;4.80;1.00;;;;;;5021339;28;20091;-73
2022/02/27 09:02:36;;;;;;;8.38;2.10;;;4.90;1.00;;;;;;5017287;28;20077;-72
2022/02/27 09:05:02;;;;;;;11.18;1.60;;;5.10;1.00;;;;;;5017345;28;20033;-72
2022/02/27 09:07:28;;;;;;;7.70;1.92;;;5.30;1.00;;;;;;5017337;28;20042;-71
2022/02/27 09:09:54;;;;;;;14.57;1.88;;;5.50;1.00;;;;;;5033819;28;20041;-71
2022/02/27 09:12:19;;;;;;;7.93;2.10;;;5.80;1.00;;;;;;5036258;28;20068;-70
2022/02/27 09:14:45;;;;;;;11.95;1.92;;;5.80;1.00;;;;;;5035582;28;20029;-72
2022/02/27 09:17:12;;;;;;;9.18;1.85;;;5.90;1.00;;;;;;5041540;28;20094;-72
2022/02/27 09:19:38;;;;;;;13.18;2.08;;;5.90;1.00;;;;;;5054155;28;20090;-72
2022/02/27 09:22:05;;;;;;;14.07;2.47;;;5.80;1.00;;;;;;5056065;28;20033;-71
2022/02/27 09:24:31;;;;;;;9.65;1.88;;;6.00;1.00;;;;;;5056005;28;20060;-72
2022/02/27 09:26:57;;;;;;;16.98;2.28;;;6.20;1.00;;;;;;5055536;28;20043;-72
2022/02/27 09:29:24;;;;;;;11.85;1.95;;;6.10;1.00;;;;;;5037587;28;20095;-72
2022/02/27 09:31:50;;;;;;;8.77;1.63;;;6.30;1.00;;;;;;5055942;28;20040;-72
2022/02/27 09:34:16;;;;;;;15.25;2.13;;;6.40;1.00;;;;;;5055700;28;20037;-71
2022/02/27 09:36:42;;;;;;;9.35;2.00;;;6.40;1.00;;;;;;5055897;28;20062;-72
2022/02/27 09:39:08;;;;;;;9.88;1.52;;;6.60;1.00;;;;;;5056197;28;20403;-72
2022/02/27 09:41:34;;;;;;;9.60;1.77;;;6.60;1.00;;;;;;5055821;28;20032;-72
2022/02/27 09:44:03;;;;;;;8.45;1.90;;;6.90;1.00;;;;;;5055634;28;20063;-71
2022/02/27 09:46:30;;;;;;;8.13;1.60;;;7.10;1.00;;;;;;5055313;28;20048;-72
2022/02/27 09:48:57;;;;;;;12.93;1.80;;;7.10;1.00;;;;;;5055794;28;20060;-72
2022/02/27 09:51:23;;;;;;;9.90;1.60;;;7.20;1.00;;;;;;5055265;28;20033;-72
2022/02/27 09:53:50;;;;;;;9.50;1.55;;;7.40;1.00;;;;;;5055642;28;20507;-72
2022/02/27 09:56:16;;;;;;;9.23;1.30;;;7.30;1.00;;;;;;5055549;28;20029;-73
2022/02/27 09:58:42;;;;;;;7.18;1.67;;;7.40;1.00;;;;;;5055897;28;20033;-72
2022/02/27 10:01:09;;;;;;;9.43;1.98;;;7.40;1.00;;;;;;5055666;28;20074;-72
2022/02/27 10:03:35;;;;;;;11.10;1.40;;;7.40;1.00;;;;;;5055388;28;20571;-72
2022/02/27 10:06:08;;;;;;;13.82;1.63;;;7.40;1.00;;;;;;5054824;28;20040;-72
2022/02/27 10:08:47;;;;;;;9.68;1.88;;;7.50;1.00;;;;;;5055222;28;20507;-72
2022/02/27 10:11:18;;;;;;;11.82;2.10;;;7.50;1.00;;;;;;5055246;28;20044;-72
2022/02/27 10:13:47;;;;;;;10.75;1.92;;;7.70;1.00;;;;;;5054345;28;20036;-71
2022/02/27 10:16:15;;;;;;;10.05;1.42;;;7.60;1.00;;;;;;5034935;28;20053;-71
2022/02/27 10:18:52;;;;;;;12.75;2.10;;;7.90;1.00;;;;;;5035527;28;20129;-71
2022/02/27 10:21:34;;;;;;;8.32;2.20;;;7.70;1.00;;;;;;5035686;28;20124;-73
2022/02/27 10:24:09;;;;;;;10.85;2.15;;;8.10;1.00;;;;;;5036158;28;20111;-70
2022/02/27 10:26:37;;;;;;;11.07;1.83;;;7.80;1.00;;;;;;5035644;28;20079;-70
2022/02/27 10:29:18;;;;;;;6.10;1.58;;;8.00;1.00;;;;;;5035468;28;20038;-70
2022/02/27 10:31:55;;;;;;;9.95;2.05;;;8.20;1.00;;;;;;5036223;28;20037;-71
2022/02/27 10:34:26;;;;;;;10.00;2.15;;;8.20;1.00;;;;;;5035730;28;20091;-70
2022/02/27 10:37:08;;;;;;;11.35;1.52;;;8.20;1.00;;;;;;5035748;28;20047;-71
2022/02/27 10:39:46;;;;;;;8.52;1.70;;;8.20;1.00;;;;;;5035733;28;20046;-71
2022/02/27 10:42:16;;;;;;;8.60;1.38;;;8.30;1.00;;;;;;5035078;28;20484;-71
2022/02/27 10:45:00;;;;;;;9.60;1.98;;;9.40;1.00;;;;;;5034884;28;20029;-70
2022/02/27 10:47:36;;;;;;;11.85;1.83;;;8.60;1.00;;;;;;5038519;28;20044;-71
2022/02/27 10:50:08;;;;;;;14.88;1.88;;;8.50;1.00;;;;;;5035557;28;20484;-73
2022/02/27 10:52:36;;;;;;;10.60;2.00;;;8.60;1.00;;;;;;5034993;28;20041;-72
2022/02/27 10:55:06;;;;;;;8.90;1.60;;;8.60;1.00;;;;;;5034507;28;20033;-71
2022/02/27 10:57:35;;;;;;;9.98;3.08;;;8.50;1.00;;;;;;5035069;28;20056;-71
2022/02/27 11:00:18;;;;;;;10.88;2.45;;;8.30;1.00;;;;;;5035147;28;20144;-73
2022/02/27 11:02:46;;;;;;;12.45;1.95;;;8.60;1.00;;;;;;5034243;28;20116;-74
2022/02/27 11:05:14;;;;;;;11.30;1.55;;;8.60;1.00;;;;;;5034693;28;20041;-73
2022/02/27 11:07:42;;;;;;;11.85;2.08;;;9.10;1.00;;;;;;5035727;28;20056;-74
2022/02/27 11:10:11;;;;;;;8.52;1.80;;;9.10;1.00;;;;;;5051458;28;20053;-73
2022/02/27 11:12:37;;;;;;;10.75;1.85;;;9.00;1.00;;;;;;5052582;28;20131;-75
2022/02/27 11:15:05;;;;;;;13.07;1.98;;;9.10;1.00;;;;;;5034414;28;20052;-75
2022/02/27 11:17:32;;;;;;;9.13;2.00;;;9.20;1.00;;;;;;5034522;28;20124;-74
2022/02/27 11:20:01;;;;;;;8.70;1.40;;;9.20;1.00;;;;;;5034006;28;20037;-74
2022/02/27 11:22:28;;;;;;;7.38;1.35;;;9.30;1.00;;;;;;5034556;28;20041;-74
2022/02/27 11:24:57;;;;;;;7.95;1.50;;;9.30;1.00;;;;;;5034770;28;20045;-74
2022/02/27 11:27:27;;;;;;;8.95;2.00;;;9.30;1.00;;;;;;5034101;28;20513;-74
2022/02/27 11:30:00;;;;;;;8.45;1.95;;;9.30;1.00;;;;;;5034217;28;20037;-74
2022/02/27 11:32:26;;;;;;;9.00;1.52;;;9.30;1.00;;;;;;5034473;28;20037;-75
2022/02/27 11:34:53;;;;;;;10.02;1.85;;;9.60;1.00;;;;;;5046950;28;20045;-75
2022/02/27 11:37:51;;;;;;;7.65;1.70;;;9.60;1.00;;;;;;5039777;28;20090;-74
2022/02/27 11:40:27;;;;;;;6.65;1.33;;;9.70;1.00;;;;;;5034491;28;20029;-74
2022/02/27 11:42:54;;;;;;;8.15;1.58;;;9.80;1.00;;;;;;5034935;28;20049;-74
2022/02/27 11:45:41;;;;;;;9.82;1.92;;;10.10;1.00;;;;;;5039940;28;20525;-75
2022/02/27 11:48:07;;;;;;;7.57;1.63;;;10.30;1.00;;;;;;5042951;28;20053;-74
2022/02/27 11:50:43;;;;;;;10.23;1.70;;;10.50;1.00;;;;;;5054635;28;20041;-73
2022/02/27 11:53:24;;;;;;;6.07;1.42;;;10.40;1.00;;;;;;5054758;28;20049;-74
2022/02/27 11:55:53;;;;;;;15.30;2.92;;;10.40;1.00;;;;;;5053292;28;20091;-74
2022/02/27 11:58:34;;;;;;;7.78;1.88;;;10.30;1.00;;;;;;5052969;28;20049;-74
2022/02/27 12:01:03;;;;;;;6.13;1.95;;;10.30;1.00;;;;;;5052003;28;20114;-74
2022/02/27 12:03:32;;;;;;;10.57;1.90;;;10.60;1.00;;;;;;5053918;28;20037;-74
2022/02/27 12:06:04;;;;;;;8.90;1.50;;;10.80;1.00;;;;;;5053895;28;20033;-74
2022/02/27 12:08:53;;;;;;;6.10;2.00;;;10.70;1.00;;;;;;5053580;28;20041;-74
2022/02/27 12:11:29;;;;;;;6.20;1.80;;;10.50;1.00;;;;;;5053935;28;20040;-73
2022/02/27 12:14:15;;;;;;;10.80;1.60;;;10.30;1.00;;;;;;5054056;28;20037;-73
2022/02/27 12:16:44;;;;;;;10.05;2.00;;;10.20;1.00;;;;;;5054334;28;20135;-74
2022/02/27 12:19:27;;;;;;;6.15;1.50;;;10.10;1.00;;;;;;5054460;28;20483;-74
2022/02/27 12:21:58;;;;;;;8.43;1.45;;;10.40;1.00;;;;;;5054841;28;20033;-73
2022/02/27 12:24:26;;;;;;;;;;;10.20;1.00;;;;;;5054918;28;20041;-74
2022/02/27 12:26:59;;;;;;;4.65;1.30;;;10.30;1.00;;;;;;5052357;28;20351;-73
2022/02/27 12:29:41;;;;;;;6.65;1.70;;;10.30;1.00;;;;;;5033665;28;20107;-74
2022/02/27 12:32:24;;;;;;;8.05;1.50;;;10.40;1.00;;;;;;5038242;28;20041;-74
2022/02/27 12:34:53;;;;;;;8.57;1.45;;;10.30;1.00;;;;;;5038333;28;20090;-75
2022/02/27 12:37:21;;;;;;;9.98;1.90;;;10.50;1.00;;;;;;5049789;28;20053;-74
2022/02/27 12:39:53;;;;;;;9.55;1.80;;;10.60;1.00;;;;;;5055578;28;20025;-74
2022/02/27 12:42:22;;;;;;;6.63;1.58;;;10.40;1.00;;;;;;5051242;28;20555;-75
2022/02/27 12:44:50;;;;;;;8.02;1.48;;;10.40;1.00;;;;;;5036735;28;20049;-74
2022/02/27 12:47:18;;;;;;;7.05;1.40;;;10.40;1.00;;;;;;5036869;28;20060;-74
2022/02/27 12:52:39;;;;;;;7.50;1.75;;;10.10;1.00;;;;;;5037011;28;20412;-74
2022/02/27 12:55:12;;;;;;;5.93;1.67;;;10.10;1.00;;;;;;5035910;28;20068;-74
2022/02/27 12:57:47;;;;;;;7.15;1.63;;;10.00;1.00;;;;;;5037360;28;20049;-74
2022/02/27 13:00:19;;;;;;;9.18;1.55;;;10.20;1.00;;;;;;5054327;28;20060;-75
2022/02/27 13:02:44;;;;;;;8.07;2.15;;;10.40;1.00;;;;;;5036290;28;20111;-73
2022/02/27 13:05:13;;;;;;;8.60;1.35;;;10.50;1.00;;;;;;5032026;28;20046;-74